Main page
METAR-TAF:

METAR-TAF

Airports :

Ghadames Airport

Ghadames, Libya

latitude: 30-08N, longitude: 009-30E, elevation: 346 m

METAR: missing

Time: 09:47 (07:47 UTC)

Forecast

The report was made 2 hours and 47 minutes ago, at 05:00 UTC
Forecast valid from 08 at 06 UTC to 09 at 06 UTC
Wind 14 kt from the East
Visibility: 7000 m
Becoming
from 08 at 16 UTC to 08 at 18 UTC
Wind 12 kt from the North
Visibility: 6000 m
Scattered clouds at a height of 3000 ft
Scattered clouds at a height of 7500 ft

TAF: HLTD 080500Z 0806/0906 10014KT 7000 NSC BECMG 0816/0818 36012KT 6000 SCT030 SCT075

Weather observations and forecasts of more than 4000 airports (METAR and TAF reports).

The available stations are represented by yellow and red dots on the map.

Hover mouse over dot to see the name of the station.

Then click to see weather observations and forecasts.

To change the map : click on the green buttons with a black cross to zoom in, on the green button with a dash to zoom out, or on the green arrows for adjacent maps.


METAR-TAF: